createdAt,value
2019-02-07T00:09:03.557Z,10.5
2019-02-07T00:14:05.793Z,10.3
2019-02-07T00:19:08.191Z,9.2
2019-02-07T00:24:10.383Z,7.1
2019-02-07T00:29:12.804Z,7.9
2019-02-07T00:34:14.875Z,5.8
2019-02-07T00:39:17.208Z,4.8
2019-02-07T00:44:19.664Z,6.8
2019-02-07T00:49:21.785Z,4
2019-02-07T00:54:24.175Z,4.6
2019-02-07T00:59:26.390Z,5.1
2019-02-07T01:04:28.702Z,4.8
2019-02-07T01:09:30.967Z,6
2019-02-07T01:14:33.234Z,3.5
2019-02-07T01:19:36.704Z,3.3
2019-02-07T01:24:37.823Z,6
2019-02-07T01:29:40.136Z,5.7
2019-02-07T01:34:42.449Z,5.1
2019-02-07T01:39:44.843Z,6.6
2019-02-07T01:44:48.410Z,8.2
2019-02-07T01:49:49.404Z,6.3
2019-02-07T01:54:51.663Z,6.7
2019-02-07T02:08:04.124Z,6.7
2019-02-07T02:13:10.629Z,8.5
2019-02-07T02:23:44.405Z,6
2019-02-07T02:28:46.694Z,6.3
2019-02-07T02:33:49.107Z,10.1
2019-02-07T02:38:51.358Z,9.4
2019-02-07T02:43:53.609Z,7.9
2019-02-07T02:48:55.936Z,6.8
2019-02-07T02:53:58.216Z,5.2
2019-02-07T02:59:00.436Z,6
2019-02-07T03:04:02.870Z,4.1
2019-02-07T03:09:05.204Z,4.4
2019-02-07T03:14:07.516Z,6.4
2019-02-07T03:19:09.659Z,5.4
2019-02-07T03:24:12.165Z,6.4
2019-02-07T03:29:14.299Z,5.3
2019-02-07T03:34:16.600Z,6.5
2019-02-07T03:39:18.815Z,3.9
2019-02-07T03:44:21.199Z,5.9
2019-02-07T03:49:23.383Z,5
2019-02-07T03:54:25.805Z,7
2019-02-07T03:59:28.116Z,6
2019-02-07T04:04:30.371Z,3.6
2019-02-07T04:09:32.704Z,6.1
2019-02-07T04:14:34.876Z,5.2
2019-02-07T04:19:37.245Z,5.6
2019-02-07T04:24:39.510Z,3.7
2019-02-07T04:29:41.796Z,4.6
2019-02-07T04:34:44.077Z,4.1
2019-02-07T04:39:46.423Z,4.4
2019-02-07T04:53:42.764Z,7.3
2019-02-07T04:58:44.999Z,6.5
2019-02-07T05:03:47.338Z,5.4
2019-02-07T05:08:49.599Z,3.9
2019-02-07T05:13:51.922Z,5.3
2019-02-07T05:18:54.118Z,5.7
2019-02-07T05:23:56.474Z,12.2
2019-02-07T05:29:47.781Z,4.8
2019-02-07T05:34:48.177Z,3.5
2019-02-07T05:39:50.517Z,5.3
2019-02-07T05:44:52.819Z,3.1
2019-02-07T05:49:54.994Z,2.8
2019-02-07T05:54:57.325Z,2.6
2019-02-07T05:59:59.724Z,1.5
2019-02-07T06:05:02.058Z,1.5
2019-02-07T06:10:04.330Z,1.5
2019-02-07T06:15:06.545Z,2.2
2019-02-07T06:20:08.828Z,3.3
2019-02-07T06:25:11.312Z,0.9
2019-02-07T06:30:13.439Z,2.1
2019-02-07T06:35:15.725Z,2.4
2019-02-07T06:40:17.919Z,2.6
2019-02-07T06:50:22.560Z,2.8
2019-02-07T06:55:25.045Z,0.9
2019-02-07T07:00:27.160Z,2.6
2019-02-07T07:05:29.470Z,1.9
2019-02-07T07:10:31.734Z,1
2019-02-07T07:15:34.006Z,2.9
2019-02-07T07:20:36.339Z,0.5
2019-02-07T07:25:38.592Z,3.2
2019-02-07T07:30:40.977Z,4.7
2019-02-07T07:35:43.248Z,0.9
2019-02-07T07:40:45.490Z,1.8
2019-02-07T07:45:47.796Z,3.2
2019-02-07T07:58:03.931Z,2.5
2019-02-07T08:03:06.296Z,2.7
2019-02-07T08:08:08.558Z,1.7
2019-02-07T08:13:10.860Z,4.7
2019-02-07T08:18:13.188Z,3.6
2019-02-07T08:23:15.441Z,1.7
2019-02-07T08:28:17.669Z,2.9
2019-02-07T08:33:19.967Z,2.9
2019-02-07T08:55:29.934Z,5
2019-02-07T09:00:30.050Z,1
2019-02-07T09:05:32.289Z,3.6
2019-02-07T09:10:34.701Z,1.7
2019-02-07T09:15:36.935Z,1.6
2019-02-07T09:20:39.215Z,1.8
2019-02-07T09:47:19.326Z,1.4
2019-02-07T09:52:21.577Z,1.4
2019-02-07T09:57:23.871Z,1.5
2019-02-07T10:02:26.144Z,2.5
2019-02-07T10:07:28.393Z,2.3
2019-02-07T10:12:30.849Z,2.6
2019-02-07T10:17:33.063Z,0.3
2019-02-07T10:22:35.555Z,2
2019-02-07T10:27:37.672Z,2.1
2019-02-07T10:32:40.010Z,1.7
2019-02-07T10:37:42.181Z,3.5
2019-02-07T10:42:44.471Z,1.7
2019-02-07T10:47:46.891Z,1.5
2019-02-07T10:52:49.218Z,2.3
2019-02-07T10:57:51.444Z,3
2019-02-07T11:02:53.658Z,1.5
2019-02-07T11:07:56.058Z,1.2
2019-02-07T11:12:58.424Z,1.7
2019-02-07T11:18:00.610Z,1.4
2019-02-07T11:23:02.987Z,2.3
2019-02-07T11:28:10.631Z,1.4
2019-02-07T11:33:08.864Z,0.6
2019-02-07T11:38:09.730Z,1.7
2019-02-07T11:43:12.109Z,2.5
2019-02-07T11:48:14.322Z,0.7
2019-02-07T11:53:16.636Z,1
2019-02-07T11:58:18.969Z,1
2019-02-07T12:03:21.167Z,1.7
2019-02-07T12:08:23.488Z,1.5
2019-02-07T12:13:25.845Z,1.6
2019-02-07T12:18:29.195Z,1.7
2019-02-07T12:23:30.417Z,1.5
2019-02-07T12:28:32.634Z,2.9
2019-02-07T12:33:35.020Z,0.5
2019-02-07T12:38:37.250Z,0.9
2019-02-07T12:43:39.581Z,1.3
2019-02-07T12:48:41.876Z,1.1
2019-02-07T12:53:44.143Z,0.9
2019-02-07T12:58:46.574Z,2.2
2019-02-07T13:03:48.681Z,0.5
2019-02-07T13:08:51.073Z,0.6
2019-02-07T13:13:53.381Z,0.7
2019-02-07T13:18:55.757Z,0.3
2019-02-07T13:23:59.436Z,1.4
2019-02-07T13:29:00.231Z,1.3
2019-02-07T13:34:02.607Z,0.3
2019-02-07T13:39:04.745Z,1.6
2019-02-07T13:44:07.209Z,0.1
2019-02-07T13:49:09.360Z,0.5
2019-02-07T13:54:11.718Z,0.2
2019-02-07T14:15:39.169Z,0.7
2019-02-07T14:20:41.484Z,1.2
2019-02-07T14:25:43.722Z,0.4
2019-02-07T14:30:45.984Z,0.9
2019-02-07T14:35:48.290Z,0.8
2019-02-07T14:40:50.576Z,3.5
2019-02-07T14:45:52.887Z,0.5
2019-02-07T14:50:55.161Z,0.4
2019-02-07T14:55:57.378Z,3.2
2019-02-07T15:00:59.717Z,0.9
2019-02-07T15:06:02.033Z,0.9
2019-02-07T15:11:04.295Z,0.7
2019-02-07T15:16:06.604Z,1.3
2019-02-07T15:21:08.928Z,1.1
2019-02-07T15:26:11.152Z,1
2019-02-07T15:31:13.723Z,0.9
2019-02-07T15:36:19.959Z,0.1
2019-02-07T15:41:18.155Z,0.6
2019-02-07T15:46:20.463Z,2.3
2019-02-07T15:51:22.642Z,1.7
2019-02-07T15:56:25.001Z,0.5
2019-02-07T16:01:27.299Z,0.4
2019-02-07T16:12:06.757Z,1
2019-02-07T16:17:07.896Z,1
2019-02-07T16:22:10.251Z,2.5
2019-02-07T16:27:12.529Z,0.6
2019-02-07T16:32:14.807Z,1.2
2019-02-07T16:42:20.461Z,1.8
2019-02-07T16:47:21.814Z,1.7
2019-02-07T16:52:23.997Z,2.2
2019-02-07T16:57:26.344Z,0.8
2019-02-07T17:02:28.532Z,0.4
2019-02-07T17:07:30.820Z,1.2
2019-02-07T17:12:33.189Z,1.5
2019-02-07T17:17:35.487Z,2.5
2019-02-07T17:22:37.784Z,2.6
2019-02-07T17:27:40.099Z,0.8
2019-02-07T17:32:42.369Z,0.4
2019-02-07T17:37:44.673Z,1.1
2019-02-07T17:42:46.961Z,1.2
2019-02-07T17:47:51.945Z,0.9
2019-02-07T17:52:51.558Z,0.9
2019-02-07T17:57:53.838Z,1.3
2019-02-07T18:02:56.163Z,1.4
2019-02-07T18:23:55.686Z,0.9
2019-02-07T18:28:57.968Z,1.5
2019-02-07T18:34:00.150Z,1.5
2019-02-07T18:48:58.081Z,2.1
2019-02-07T18:53:58.293Z,0.6
2019-02-07T18:59:00.480Z,0.4
2019-02-07T19:04:02.769Z,2.4
2019-02-07T19:09:05.154Z,2.6
2019-02-07T19:14:07.405Z,0.8
2019-02-07T19:19:09.764Z,0.7
2019-02-07T19:24:11.985Z,2.3
2019-02-07T19:29:14.460Z,0.2
2019-02-07T19:34:16.644Z,2.2
2019-02-07T19:44:21.407Z,1.2
2019-02-07T19:49:23.719Z,1.5
2019-02-07T19:54:25.771Z,3.3
2019-02-07T19:59:28.122Z,0.9
2019-02-07T20:04:30.360Z,1.7
2019-02-07T20:09:32.754Z,0.8
2019-02-07T20:14:35.023Z,0.9
2019-02-07T20:19:37.415Z,1.2
2019-02-07T20:24:46.018Z,0.7
2019-02-07T20:29:41.789Z,1.2
2019-02-07T20:34:44.160Z,1.7
2019-02-07T20:39:46.406Z,1.3
2019-02-07T20:44:48.696Z,1.1
2019-02-07T20:49:51.060Z,0.8
2019-02-07T20:54:53.415Z,0.1
2019-02-07T20:59:55.611Z,0.9
2019-02-07T21:04:58.029Z,0.7
2019-02-07T21:10:00.219Z,1
2019-02-07T21:15:02.475Z,1.5
2019-02-07T21:20:04.851Z,0.9
2019-02-07T21:25:07.181Z,1.5
2019-02-07T21:30:09.370Z,1.4
2019-02-07T21:35:14.203Z,3.2
2019-02-07T21:40:13.928Z,1.2
2019-02-07T21:45:16.247Z,1.1
2019-02-07T21:50:18.596Z,1.7
2019-02-07T21:55:20.851Z,0.7
2019-02-07T22:00:23.159Z,1.9
2019-02-07T22:05:25.462Z,1.5
2019-02-07T22:10:27.727Z,0.3
2019-02-07T22:15:30.017Z,1.4
2019-02-07T22:20:32.337Z,1.2
2019-02-07T22:25:34.546Z,2.4
2019-02-07T22:30:36.896Z,2.2
2019-02-07T22:35:39.226Z,1.1
2019-02-07T22:40:41.490Z,2.2
2019-02-07T22:45:43.895Z,0.5
2019-02-07T22:50:46.153Z,1.2
2019-02-07T22:55:48.300Z,1.6
2019-02-07T23:00:50.580Z,0.8
2019-02-07T23:05:54.128Z,1
2019-02-07T23:10:57.530Z,0.8
2019-02-07T23:15:57.473Z,1
2019-02-07T23:20:59.778Z,3.4
2019-02-07T23:43:02.641Z,1.3
2019-02-07T23:48:05.018Z,1.1
2019-02-07T23:53:14.336Z,0.7
2019-02-07T23:58:09.532Z,1.4
